Time;durP1;ratioP1;P1;durP2;ratioP2;P2;SDS_P1;SDS_P2;PMS_P1;PMS_P2;Temp;Humidity;BMP_temperature;BMP_pressure;BME280_temperature;BME280_humidity;BME280_pressure;Samples;Min_cycle;Max_cycle;Signal;HPM_P1;HPM_P2
2022/06/24 00:00:52;;;;;;;0.50;0.50;;;;;;;;;;4922765;29;20167;-59
2022/06/24 00:03:18;;;;;;;0.45;0.40;;;;;;;;;;4927963;29;20026;-58
2022/06/24 00:05:43;;;;;;;5.22;1.92;;;;;;;;;;4921144;29;20024;-59
2022/06/24 00:08:09;;;;;;;1.38;0.50;;;;;;;;;;4921970;29;20374;-58
2022/06/24 00:10:35;;;;;;;0.70;0.70;;;;;;;;;;4922020;29;20244;-58
2022/06/24 00:13:01;;;;;;;0.00;0.00;;;;;;;;;;4920682;29;20075;-59
2022/06/24 00:15:27;;;;;;;3.45;1.27;;;;;;;;;;4925602;29;20036;-58
2022/06/24 00:17:52;;;;;;;0.20;0.20;;;;;;;;;;4925375;29;20019;-58
2022/06/24 00:20:18;;;;;;;0.38;0.38;;;;;;;;;;4928465;29;20541;-58
2022/06/24 00:22:44;;;;;;;0.00;0.00;;;;;;;;;;4922086;29;20035;-58
2022/06/24 00:25:11;;;;;;;0.00;0.00;;;;;;;;;;4921784;29;20733;-59
2022/06/24 00:27:37;;;;;;;8.25;0.70;;;;;;;;;;4933647;29;20465;-59
2022/06/24 00:30:12;;;;;;;0.00;0.00;;;;;;;;;;4927186;29;20071;-59
2022/06/24 00:32:37;;;;;;;1.48;0.40;;;;;;;;;;4927261;29;20020;-59
2022/06/24 00:35:02;;;;;;;0.00;0.00;;;;;;;;;;4933563;29;20091;-58
2022/06/24 00:37:28;;;;;;;1.67;0.65;;;;;;;;;;4929493;29;20119;-59
2022/06/24 00:39:55;;;;;;;0.00;0.00;;;;;;;;;;4926717;29;20434;-59
2022/06/24 00:42:20;;;;;;;0.05;0.05;;;;;;;;;;4931076;29;20047;-59
2022/06/24 00:44:58;;;;;;;1.00;1.00;;;;;;;;;;4912931;29;20512;-59
2022/06/24 00:47:24;;;;;;;1.27;0.90;;;;;;;;;;4925992;29;20024;-59
2022/06/24 00:49:51;;;;;;;11.75;1.48;;;;;;;;;;4915035;29;20086;-59
2022/06/24 00:52:17;;;;;;;0.43;0.30;;;;;;;;;;4928223;29;20047;-60
2022/06/24 00:54:43;;;;;;;0.17;0.17;;;;;;;;;;4933066;29;20481;-59
2022/06/24 00:57:08;;;;;;;0.98;0.73;;;;;;;;;;4929241;29;20715;-59
2022/06/24 00:59:35;;;;;;;2.25;0.80;;;;;;;;;;4926209;29;20075;-59
2022/06/24 01:02:03;;;;;;;0.20;0.20;;;;;;;;;;4927779;29;20107;-59
2022/06/24 01:04:32;;;;;;;0.00;0.00;;;;;;;;;;4931480;29;20122;-59
2022/06/24 01:06:57;;;;;;;;;;;;;;;;;;4928928;29;20019;-59
2022/06/24 01:09:23;;;;;;;0.43;0.10;;;;;;;;;;4927184;29;20084;-59
2022/06/24 01:11:48;;;;;;;0.50;0.50;;;;;;;;;;4926408;29;20022;-60
2022/06/24 01:14:13;;;;;;;0.65;0.65;;;;;;;;;;4926571;29;20473;-58
2022/06/24 01:16:38;;;;;;;1.88;0.85;;;;;;;;;;4929121;29;20520;-58
2022/06/24 01:19:05;;;;;;;0.00;0.00;;;;;;;;;;4923860;29;20054;-58
2022/06/24 01:21:40;;;;;;;2.20;0.90;;;;;;;;;;4924871;29;20485;-57
2022/06/24 01:24:06;;;;;;;0.32;0.32;;;;;;;;;;4930044;29;20044;-58
2022/06/24 01:26:32;;;;;;;0.45;0.25;;;;;;;;;;4926223;29;20051;-58
2022/06/24 01:28:57;;;;;;;0.00;0.00;;;;;;;;;;4925908;29;20043;-59
2022/06/24 01:31:23;;;;;;;0.20;0.20;;;;;;;;;;4925222;29;20110;-59
2022/06/24 01:33:48;;;;;;;4.90;1.02;;;;;;;;;;4920304;29;20115;-58
2022/06/24 01:36:13;;;;;;;10.02;1.17;;;;;;;;;;4925296;29;20032;-58
2022/06/24 01:38:38;;;;;;;1.40;0.22;;;;;;;;;;4925585;29;20027;-59
2022/06/24 01:41:04;;;;;;;0.00;0.00;;;;;;;;;;4921693;29;20028;-58
2022/06/24 01:43:29;;;;;;;0.25;0.17;;;;;;;;;;4926704;29;20039;-60
2022/06/24 01:45:54;;;;;;;1.05;0.80;;;;;;;;;;4931922;29;20031;-60
2022/06/24 01:48:19;;;;;;;0.00;0.00;;;;;;;;;;4931274;29;20061;-59
2022/06/24 01:50:44;;;;;;;0.00;0.00;;;;;;;;;;4931976;29;20272;-58
2022/06/24 01:53:10;;;;;;;4.63;1.38;;;;;;;;;;4930662;29;20276;-60
2022/06/24 01:55:35;;;;;;;0.80;0.80;;;;;;;;;;4931273;29;20032;-60
2022/06/24 01:58:00;;;;;;;1.00;0.43;;;;;;;;;;4930675;29;20399;-60
2022/06/24 02:00:26;;;;;;;0.00;0.00;;;;;;;;;;4927494;29;20384;-60
2022/06/24 02:02:51;;;;;;;0.88;0.88;;;;;;;;;;4932146;29;20027;-60
2022/06/24 02:05:17;;;;;;;3.95;0.93;;;;;;;;;;4931427;29;20113;-59
2022/06/24 02:07:42;;;;;;;0.40;0.40;;;;;;;;;;4931787;29;20047;-60
2022/06/24 02:15:35;;;;;;;0.15;0.15;;;;;;;;;;4932038;29;20051;-60
2022/06/24 02:18:01;;;;;;;0.10;0.10;;;;;;;;;;4892750;29;1116855;-60
2022/06/24 02:20:26;;;;;;;0.00;0.00;;;;;;;;;;4915032;29;20059;-60
2022/06/24 02:22:51;;;;;;;0.20;0.20;;;;;;;;;;4931677;29;20440;-60
2022/06/24 02:25:17;;;;;;;0.00;0.00;;;;;;;;;;4932037;29;20015;-60
2022/06/24 02:27:43;;;;;;;0.00;0.00;;;;;;;;;;4931425;29;20477;-60
2022/06/24 02:30:08;;;;;;;0.00;0.00;;;;;;;;;;4932415;29;20039;-60
2022/06/24 02:32:33;;;;;;;1.33;1.25;;;;;;;;;;4931996;29;20267;-60
2022/06/24 02:34:58;;;;;;;0.10;0.10;;;;;;;;;;4931625;29;20032;-59
2022/06/24 02:37:24;;;;;;;0.00;0.00;;;;;;;;;;4932022;29;20272;-60
2022/06/24 02:39:49;;;;;;;0.00;0.00;;;;;;;;;;4932407;29;20310;-61
2022/06/24 02:42:14;;;;;;;3.83;3.03;;;;;;;;;;4930737;29;20268;-60
2022/06/24 02:44:39;;;;;;;0.00;0.00;;;;;;;;;;4932040;29;20084;-60
2022/06/24 02:47:04;;;;;;;0.10;0.10;;;;;;;;;;4930949;29;20276;-59
2022/06/24 02:49:29;;;;;;;0.00;0.00;;;;;;;;;;4930556;29;20546;-60
2022/06/24 02:51:55;;;;;;;0.37;0.20;;;;;;;;;;4930906;29;20027;-60
2022/06/24 02:54:20;;;;;;;0.00;0.00;;;;;;;;;;4930423;29;20629;-60
2022/06/24 02:56:45;;;;;;;0.00;0.00;;;;;;;;;;4931984;29;20310;-60
2022/06/24 02:59:10;;;;;;;0.00;0.00;;;;;;;;;;4930666;29;20520;-61
2022/06/24 03:01:35;;;;;;;0.00;0.00;;;;;;;;;;4930196;29;20267;-59
2022/06/24 03:04:01;;;;;;;0.00;0.00;;;;;;;;;;4931475;29;20027;-60
2022/06/24 03:06:26;;;;;;;0.00;0.00;;;;;;;;;;4931041;29;20282;-60
2022/06/24 03:08:51;;;;;;;0.00;0.00;;;;;;;;;;4931121;29;20027;-60
2022/06/24 03:11:17;;;;;;;1.13;1.13;;;;;;;;;;4931337;29;20011;-60
2022/06/24 03:13:42;;;;;;;0.00;0.00;;;;;;;;;;4931272;29;20054;-59
2022/06/24 03:16:07;;;;;;;1.80;1.77;;;;;;;;;;4931564;29;20036;-59
2022/06/24 03:18:32;;;;;;;0.00;0.00;;;;;;;;;;4930806;29;20051;-59
2022/06/24 03:20:58;;;;;;;0.00;0.00;;;;;;;;;;4929876;29;20061;-59
2022/06/24 03:23:23;;;;;;;0.00;0.00;;;;;;;;;;4930954;29;20436;-59
2022/06/24 03:25:48;;;;;;;0.00;0.00;;;;;;;;;;4931343;29;20410;-60
2022/06/24 03:28:13;;;;;;;0.00;0.00;;;;;;;;;;4931247;29;20318;-59
2022/06/24 03:30:39;;;;;;;0.00;0.00;;;;;;;;;;4930371;29;20250;-59
2022/06/24 03:33:05;;;;;;;0.00;0.00;;;;;;;;;;4928915;29;20023;-59
2022/06/24 03:35:30;;;;;;;0.45;0.45;;;;;;;;;;4929518;29;20042;-60
2022/06/24 03:37:55;;;;;;;0.00;0.00;;;;;;;;;;4930250;29;20489;-60
2022/06/24 03:40:21;;;;;;;0.00;0.00;;;;;;;;;;4930095;29;20027;-60
2022/06/24 03:42:46;;;;;;;0.00;0.00;;;;;;;;;;4931063;29;20385;-60
2022/06/24 03:45:11;;;;;;;0.00;0.00;;;;;;;;;;4931201;29;20031;-60
2022/06/24 03:47:36;;;;;;;0.10;0.10;;;;;;;;;;4930492;29;20056;-61
2022/06/24 03:50:02;;;;;;;0.00;0.00;;;;;;;;;;4930425;29;20111;-61
2022/06/24 03:52:27;;;;;;;0.00;0.00;;;;;;;;;;4913110;29;20028;-60
2022/06/24 03:54:52;;;;;;;0.00;0.00;;;;;;;;;;4931010;29;20027;-60
2022/06/24 03:57:17;;;;;;;1.90;1.88;;;;;;;;;;4929667;29;20034;-60
2022/06/24 03:59:42;;;;;;;0.00;0.00;;;;;;;;;;4930189;29;20034;-60
2022/06/24 04:02:08;;;;;;;0.00;0.00;;;;;;;;;;4932876;29;20055;-60
2022/06/24 04:04:33;;;;;;;0.00;0.00;;;;;;;;;;4933465;29;20119;-60
2022/06/24 04:06:58;;;;;;;0.00;0.00;;;;;;;;;;4934227;29;20034;-60
2022/06/24 04:09:23;;;;;;;0.00;0.00;;;;;;;;;;4934516;29;20362;-60
2022/06/24 04:11:49;;;;;;;0.00;0.00;;;;;;;;;;4934475;29;20043;-60
2022/06/24 04:14:14;;;;;;;0.00;0.00;;;;;;;;;;4934321;29;20095;-60
2022/06/24 04:16:39;;;;;;;0.00;0.00;;;;;;;;;;4934265;29;20027;-61
2022/06/24 04:19:04;;;;;;;0.00;0.00;;;;;;;;;;4934364;29;20055;-61
2022/06/24 04:21:31;;;;;;;0.00;0.00;;;;;;;;;;4916580;29;20027;-59
2022/06/24 04:23:56;;;;;;;0.00;0.00;;;;;;;;;;4934370;29;20031;-59
2022/06/24 04:26:22;;;;;;;0.00;0.00;;;;;;;;;;4933906;29;20525;-60
2022/06/24 04:28:48;;;;;;;3.22;3.10;;;;;;;;;;4934515;29;20023;-60
2022/06/24 04:31:14;;;;;;;0.00;0.00;;;;;;;;;;4934274;29;20031;-60
2022/06/24 04:33:39;;;;;;;0.00;0.00;;;;;;;;;;4933953;29;20478;-59
2022/06/24 04:36:13;;;;;;;0.00;0.00;;;;;;;;;;4932905;29;20034;-59
2022/06/24 04:38:41;;;;;;;0.00;0.00;;;;;;;;;;4934151;29;20501;-59
2022/06/24 04:41:13;;;;;;;0.00;0.00;;;;;;;;;;4934413;29;20034;-60
2022/06/24 04:43:38;;;;;;;0.00;0.00;;;;;;;;;;4933820;29;20032;-60
2022/06/24 04:46:04;;;;;;;0.00;0.00;;;;;;;;;;4934031;29;20412;-61
2022/06/24 04:48:29;;;;;;;0.00;0.00;;;;;;;;;;4934243;29;20039;-61
2022/06/24 04:50:54;;;;;;;0.00;0.00;;;;;;;;;;4933923;29;20063;-60
2022/06/24 04:53:19;;;;;;;0.00;0.00;;;;;;;;;;4933820;29;20032;-59
2022/06/24 04:55:44;;;;;;;0.00;0.00;;;;;;;;;;4934476;29;20028;-59
2022/06/24 04:58:10;;;;;;;0.00;0.00;;;;;;;;;;4934156;29;20027;-59
2022/06/24 05:00:35;;;;;;;0.00;0.00;;;;;;;;;;4933884;29;20032;-60
2022/06/24 05:03:00;;;;;;;0.00;0.00;;;;;;;;;;4933220;29;20283;-60
2022/06/24 05:05:25;;;;;;;0.00;0.00;;;;;;;;;;4933121;29;20291;-59
2022/06/24 05:07:51;;;;;;;0.00;0.00;;;;;;;;;;4933814;29;20830;-60
2022/06/24 05:10:16;;;;;;;0.00;0.00;;;;;;;;;;4934336;29;20039;-61
2022/06/24 05:12:41;;;;;;;0.00;0.00;;;;;;;;;;4930261;29;20075;-60
2022/06/24 05:15:06;;;;;;;0.00;0.00;;;;;;;;;;4932806;29;20358;-60
2022/06/24 05:17:32;;;;;;;0.00;0.00;;;;;;;;;;4930135;29;20055;-60
2022/06/24 05:19:57;;;;;;;0.00;0.00;;;;;;;;;;4932236;29;20393;-59
2022/06/24 05:22:22;;;;;;;0.00;0.00;;;;;;;;;;4931816;29;20102;-59
2022/06/24 05:24:50;;;;;;;0.00;0.00;;;;;;;;;;4933567;29;20616;-60
2022/06/24 05:27:15;;;;;;;0.00;0.00;;;;;;;;;;4930591;29;20047;-61
2022/06/24 05:29:41;;;;;;;0.00;0.00;;;;;;;;;;4916137;29;20071;-60
2022/06/24 05:32:06;;;;;;;0.00;0.00;;;;;;;;;;4930778;29;20028;-61
2022/06/24 05:34:31;;;;;;;0.00;0.00;;;;;;;;;;4932053;29;20689;-60
2022/06/24 05:36:56;;;;;;;0.00;0.00;;;;;;;;;;4930858;29;20028;-60
2022/06/24 05:39:22;;;;;;;0.00;0.00;;;;;;;;;;4933104;29;20047;-59
2022/06/24 05:41:47;;;;;;;0.00;0.00;;;;;;;;;;4933319;29;20110;-59
2022/06/24 05:44:12;;;;;;;2.40;2.40;;;;;;;;;;4931617;29;20059;-60
2022/06/24 05:46:38;;;;;;;0.00;0.00;;;;;;;;;;4930784;29;20028;-60
2022/06/24 05:49:03;;;;;;;0.00;0.00;;;;;;;;;;4933120;29;20379;-59
2022/06/24 05:51:29;;;;;;;5.53;5.18;;;;;;;;;;4931523;29;20110;-60
2022/06/24 05:56:38;;;;;;;0.10;0.10;;;;;;;;;;4932742;29;20034;-59
2022/06/24 05:59:04;;;;;;;0.55;0.55;;;;;;;;;;4933238;29;20540;-60
2022/06/24 06:01:30;;;;;;;0.00;0.00;;;;;;;;;;4931296;29;20032;-60
2022/06/24 06:03:55;;;;;;;0.13;0.13;;;;;;;;;;4930647;29;20461;-60
2022/06/24 06:06:23;;;;;;;0.00;0.00;;;;;;;;;;4931341;29;20035;-60
2022/06/24 06:08:49;;;;;;;0.00;0.00;;;;;;;;;;4932812;29;20030;-60
2022/06/24 06:11:14;;;;;;;3.10;0.88;;;;;;;;;;4932765;29;20020;-59
2022/06/24 06:13:41;;;;;;;0.00;0.00;;;;;;;;;;4931277;29;20090;-59
2022/06/24 06:16:06;;;;;;;1.10;0.65;;;;;;;;;;4932690;29;20040;-59
2022/06/24 06:18:31;;;;;;;1.45;0.77;;;;;;;;;;4931229;29;20040;-59
2022/06/24 06:21:03;;;;;;;0.00;0.00;;;;;;;;;;4932401;29;20106;-59
2022/06/24 06:23:29;;;;;;;0.00;0.00;;;;;;;;;;4929370;29;20043;-60
2022/06/24 06:25:55;;;;;;;0.00;0.00;;;;;;;;;;4930527;29;20103;-60
2022/06/24 06:28:20;;;;;;;0.00;0.00;;;;;;;;;;4928906;29;20718;-60
2022/06/24 06:30:45;;;;;;;0.10;0.10;;;;;;;;;;4931480;29;20104;-60
2022/06/24 06:33:11;;;;;;;0.00;0.00;;;;;;;;;;4932165;29;20268;-60
2022/06/24 06:35:36;;;;;;;0.00;0.00;;;;;;;;;;4931262;29;20036;-60
2022/06/24 06:38:01;;;;;;;0.00;0.00;;;;;;;;;;4932377;29;20260;-60
2022/06/24 06:40:26;;;;;;;0.30;0.22;;;;;;;;;;4931610;29;20645;-60
2022/06/24 06:42:55;;;;;;;0.00;0.00;;;;;;;;;;4931035;29;20024;-60
2022/06/24 06:45:20;;;;;;;0.00;0.00;;;;;;;;;;4931964;29;20290;-61
2022/06/24 06:47:45;;;;;;;0.00;0.00;;;;;;;;;;4932058;29;20358;-60
2022/06/24 06:50:11;;;;;;;0.00;0.00;;;;;;;;;;4912444;29;20552;-60
2022/06/24 06:52:36;;;;;;;0.00;0.00;;;;;;;;;;4927093;29;20098;-61
2022/06/24 06:55:02;;;;;;;0.63;0.40;;;;;;;;;;4931778;29;20024;-60
2022/06/24 06:57:27;;;;;;;0.00;0.00;;;;;;;;;;4928419;29;20271;-60
2022/06/24 06:59:52;;;;;;;0.00;0.00;;;;;;;;;;4931630;29;20070;-59
2022/06/24 07:02:17;;;;;;;0.00;0.00;;;;;;;;;;4931046;29;20035;-60
2022/06/24 07:04:43;;;;;;;0.00;0.00;;;;;;;;;;4931158;29;20355;-60
2022/06/24 07:07:08;;;;;;;0.00;0.00;;;;;;;;;;4930477;29;20527;-61
2022/06/24 07:09:33;;;;;;;0.20;0.20;;;;;;;;;;4927988;29;20149;-60
2022/06/24 07:11:58;;;;;;;0.00;0.00;;;;;;;;;;4924872;29;20031;-60
2022/06/24 07:14:24;;;;;;;0.00;0.00;;;;;;;;;;4927606;29;20042;-60
2022/06/24 07:16:49;;;;;;;0.00;0.00;;;;;;;;;;4925018;29;20035;-60
2022/06/24 07:19:14;;;;;;;0.00;0.00;;;;;;;;;;4927321;29;20113;-60
2022/06/24 07:21:39;;;;;;;0.10;0.10;;;;;;;;;;4926886;29;20350;-60
2022/06/24 07:24:07;;;;;;;1.13;0.28;;;;;;;;;;4925102;29;20027;-60
2022/06/24 07:26:33;;;;;;;0.22;0.22;;;;;;;;;;4927278;29;20062;-60
2022/06/24 07:28:58;;;;;;;0.00;0.00;;;;;;;;;;4927492;29;20438;-60
2022/06/24 07:31:23;;;;;;;0.00;0.00;;;;;;;;;;4926709;29;20030;-60
2022/06/24 07:33:49;;;;;;;0.00;0.00;;;;;;;;;;4925882;29;20046;-60
2022/06/24 07:36:14;;;;;;;0.00;0.00;;;;;;;;;;4927030;29;20028;-60
2022/06/24 07:38:40;;;;;;;0.93;0.93;;;;;;;;;;4925892;29;20565;-60
2022/06/24 07:41:05;;;;;;;0.75;0.75;;;;;;;;;;4927715;29;20106;-60
2022/06/24 07:43:30;;;;;;;0.00;0.00;;;;;;;;;;4926616;29;20075;-61
2022/06/24 07:45:56;;;;;;;6.88;1.08;;;;;;;;;;4910232;29;20027;-60
2022/06/24 07:48:21;;;;;;;0.13;0.13;;;;;;;;;;4926981;29;20075;-61
2022/06/24 07:50:46;;;;;;;0.00;0.00;;;;;;;;;;4927745;29;20204;-61
2022/06/24 07:53:15;;;;;;;0.00;0.00;;;;;;;;;;4926898;29;20466;-61
2022/06/24 07:58:24;;;;;;;0.35;0.13;;;;;;;;;;4923797;29;20074;-60
2022/06/24 08:00:49;;;;;;;0.00;0.00;;;;;;;;;;4926994;29;20141;-60
2022/06/24 08:03:15;;;;;;;0.52;0.38;;;;;;;;;;4924979;29;20074;-60
2022/06/24 08:05:40;;;;;;;1.77;1.00;;;;;;;;;;4926628;29;20783;-61
2022/06/24 08:08:05;;;;;;;0.45;0.45;;;;;;;;;;4924845;29;20031;-60
2022/06/24 08:10:31;;;;;;;1.05;0.98;;;;;;;;;;4925707;29;20561;-60
2022/06/24 08:12:56;;;;;;;2.13;2.10;;;;;;;;;;4927033;29;20034;-61
2022/06/24 08:15:21;;;;;;;1.60;1.30;;;;;;;;;;4926588;29;20019;-59
2022/06/24 08:17:48;;;;;;;0.00;0.00;;;;;;;;;;4927628;29;20295;-60
2022/06/24 08:20:13;;;;;;;4.03;1.42;;;;;;;;;;4909644;29;20063;-60
2022/06/24 08:22:39;;;;;;;1.77;1.73;;;;;;;;;;4926413;29;20032;-60
2022/06/24 08:25:04;;;;;;;2.85;0.77;;;;;;;;;;4925433;29;20039;-60
2022/06/24 08:27:29;;;;;;;0.70;0.50;;;;;;;;;;4922527;29;20024;-61
2022/06/24 08:29:55;;;;;;;0.00;0.00;;;;;;;;;;4926518;29;20135;-60
2022/06/24 08:32:20;;;;;;;0.10;0.10;;;;;;;;;;4926844;29;20815;-62
2022/06/24 08:34:45;;;;;;;1.10;1.00;;;;;;;;;;4926023;29;20405;-59
2022/06/24 08:37:10;;;;;;;0.50;0.50;;;;;;;;;;4925801;29;20744;-60
2022/06/24 08:39:36;;;;;;;0.10;0.10;;;;;;;;;;4926256;29;20074;-60
2022/06/24 08:42:02;;;;;;;0.57;0.57;;;;;;;;;;4927415;29;20381;-60
2022/06/24 08:44:27;;;;;;;0.22;0.22;;;;;;;;;;4926099;29;20477;-61
2022/06/24 08:46:53;;;;;;;0.00;0.00;;;;;;;;;;4926883;29;20027;-61
2022/06/24 08:49:18;;;;;;;0.05;0.05;;;;;;;;;;4929405;29;20055;-61
2022/06/24 08:51:45;;;;;;;0.85;0.85;;;;;;;;;;4930412;29;20110;-61
2022/06/24 08:54:10;;;;;;;0.35;0.35;;;;;;;;;;4929255;29;20047;-60
2022/06/24 08:56:36;;;;;;;0.40;0.40;;;;;;;;;;4929707;29;20031;-61
2022/06/24 08:59:01;;;;;;;0.22;0.22;;;;;;;;;;4929488;29;20078;-61
2022/06/24 09:01:27;;;;;;;0.00;0.00;;;;;;;;;;4930574;29;20031;-62
2022/06/24 09:03:52;;;;;;;0.67;0.60;;;;;;;;;;4928879;29;20478;-61
2022/06/24 09:06:17;;;;;;;1.15;0.40;;;;;;;;;;4928578;29;20268;-61
2022/06/24 09:08:48;;;;;;;4.95;0.60;;;;;;;;;;4930020;29;20489;-61
2022/06/24 09:11:13;;;;;;;0.13;0.13;;;;;;;;;;4928195;29;20053;-61
2022/06/24 09:13:44;;;;;;;0.35;0.35;;;;;;;;;;4927940;29;20032;-60
2022/06/24 09:16:10;;;;;;;0.70;0.70;;;;;;;;;;4929101;29;20035;-60
2022/06/24 09:18:35;;;;;;;0.57;0.57;;;;;;;;;;4928551;29;20050;-60
2022/06/24 09:21:00;;;;;;;0.47;0.47;;;;;;;;;;4910388;29;20667;-60
2022/06/24 09:23:26;;;;;;;0.60;0.32;;;;;;;;;;4927152;29;20778;-59
2022/06/24 09:25:53;;;;;;;0.00;0.00;;;;;;;;;;4928835;29;20031;-60
2022/06/24 09:28:21;;;;;;;0.40;0.40;;;;;;;;;;4929760;29;20024;-61
2022/06/24 09:30:46;;;;;;;0.90;0.90;;;;;;;;;;4928149;29;20641;-60
2022/06/24 09:33:16;;;;;;;2.10;0.25;;;;;;;;;;4929557;29;20036;-60
2022/06/24 09:35:41;;;;;;;0.05;0.05;;;;;;;;;;4927289;29;20398;-59
2022/06/24 09:38:06;;;;;;;1.08;0.52;;;;;;;;;;4928902;29;20036;-59
2022/06/24 09:40:32;;;;;;;0.80;0.80;;;;;;;;;;4924250;29;20031;-60
2022/06/24 09:42:59;;;;;;;0.98;0.73;;;;;;;;;;4928954;29;20477;-60
2022/06/24 09:45:25;;;;;;;6.65;5.38;;;;;;;;;;4927309;29;20028;-60
2022/06/24 09:47:52;;;;;;;1.38;1.33;;;;;;;;;;4929146;29;20043;-60
2022/06/24 09:50:17;;;;;;;0.98;0.98;;;;;;;;;;4926968;29;20608;-60
2022/06/24 09:52:43;;;;;;;0.10;0.10;;;;;;;;;;4927954;29;20209;-60
2022/06/24 09:55:10;;;;;;;0.00;0.00;;;;;;;;;;4928136;29;20661;-60
2022/06/24 09:57:35;;;;;;;0.10;0.10;;;;;;;;;;4928123;29;20082;-60
2022/06/24 10:02:45;;;;;;;0.00;0.00;;;;;;;;;;4927283;29;20107;-61
2022/06/24 10:05:13;;;;;;;0.03;0.03;;;;;;;;;;4927080;29;20136;-60
2022/06/24 10:07:39;;;;;;;0.30;0.30;;;;;;;;;;4927120;29;20106;-60
2022/06/24 10:10:06;;;;;;;0.75;0.40;;;;;;;;;;4926282;29;20024;-59
2022/06/24 10:12:33;;;;;;;1.00;1.00;;;;;;;;;;4927285;29;20106;-59
2022/06/24 10:14:59;;;;;;;1.20;0.95;;;;;;;;;;4927887;29;20031;-60
2022/06/24 10:17:26;;;;;;;4.85;1.30;;;;;;;;;;4928631;29;20078;-59
2022/06/24 10:19:51;;;;;;;0.00;0.00;;;;;;;;;;4926894;29;20052;-59
2022/06/24 10:22:41;;;;;;;0.00;0.00;;;;;;;;;;4928215;29;20055;-60
2022/06/24 10:25:07;;;;;;;0.00;0.00;;;;;;;;;;4925022;29;20052;-59
2022/06/24 10:27:50;;;;;;;0.00;0.00;;;;;;;;;;4926154;29;20024;-59
2022/06/24 10:30:35;;;;;;;0.00;0.00;;;;;;;;;;4927336;29;20039;-60
2022/06/24 10:33:12;;;;;;;0.20;0.20;;;;;;;;;;4923954;29;20472;-60
2022/06/24 10:35:56;;;;;;;0.00;0.00;;;;;;;;;;4925839;29;20023;-60
2022/06/24 10:38:22;;;;;;;0.52;0.30;;;;;;;;;;4924640;29;20020;-61
2022/06/24 10:40:48;;;;;;;0.00;0.00;;;;;;;;;;4924298;29;20032;-61
2022/06/24 10:43:13;;;;;;;0.70;0.70;;;;;;;;;;4923993;29;20023;-61
2022/06/24 10:45:39;;;;;;;0.00;0.00;;;;;;;;;;4926346;29;20459;-61
2022/06/24 10:48:04;;;;;;;0.00;0.00;;;;;;;;;;4925558;29;20290;-61
2022/06/24 10:50:29;;;;;;;0.77;0.77;;;;;;;;;;4926191;29;20047;-61
2022/06/24 10:52:56;;;;;;;0.93;0.93;;;;;;;;;;4926763;29;20039;-61
2022/06/24 10:55:23;;;;;;;0.00;0.00;;;;;;;;;;4927724;29;20362;-61
2022/06/24 10:57:52;;;;;;;0.13;0.13;;;;;;;;;;4926755;29;20035;-61
2022/06/24 11:00:17;;;;;;;;;;;;;;;;;;4924133;29;20035;-61
2022/06/24 11:02:44;;;;;;;0.52;0.47;;;;;;;;;;4910058;29;19918;-61
2022/06/24 11:05:12;;;;;;;0.00;0.00;;;;;;;;;;4924113;29;20032;-61
2022/06/24 11:07:48;;;;;;;0.80;0.45;;;;;;;;;;4924584;29;20464;-61
2022/06/24 11:10:17;;;;;;;0.57;0.57;;;;;;;;;;4927385;29;20418;-60
2022/06/24 11:12:47;;;;;;;0.38;0.38;;;;;;;;;;4927418;29;20030;-61
2022/06/24 11:15:12;;;;;;;0.52;0.47;;;;;;;;;;4921162;29;20453;-60
2022/06/24 11:17:41;;;;;;;1.35;0.98;;;;;;;;;;4925905;29;20031;-60
2022/06/24 11:20:07;;;;;;;1.98;1.85;;;;;;;;;;4927069;29;20394;-59
2022/06/24 11:22:40;;;;;;;0.00;0.00;;;;;;;;;;4926708;29;20038;-60
2022/06/24 11:25:06;;;;;;;0.65;0.35;;;;;;;;;;4924749;29;20039;-59
2022/06/24 11:27:36;;;;;;;0.75;0.75;;;;;;;;;;4925903;29;20028;-60
2022/06/24 11:30:02;;;;;;;0.00;0.00;;;;;;;;;;4925488;29;20374;-59
2022/06/24 11:32:27;;;;;;;1.85;1.15;;;;;;;;;;4927277;29;20026;-60
2022/06/24 11:34:52;;;;;;;1.75;0.65;;;;;;;;;;4926360;29;20036;-60
2022/06/24 11:37:24;;;;;;;0.63;0.63;;;;;;;;;;4927081;29;20778;-59
2022/06/24 11:39:58;;;;;;;0.43;0.43;;;;;;;;;;4927102;29;20301;-59
2022/06/24 11:42:23;;;;;;;0.03;0.03;;;;;;;;;;4925534;29;20425;-59
2022/06/24 11:44:49;;;;;;;1.35;0.57;;;;;;;;;;4924729;29;20107;-60
2022/06/24 11:47:15;;;;;;;2.92;0.93;;;;;;;;;;4925541;29;20429;-60
2022/06/24 11:49:42;;;;;;;0.10;0.10;;;;;;;;;;4925838;29;20035;-60
2022/06/24 11:52:07;;;;;;;11.70;0.28;;;;;;;;;;4925812;29;20481;-59
2022/06/24 11:54:33;;;;;;;0.00;0.00;;;;;;;;;;4926443;29;20063;-60
2022/06/24 11:56:58;;;;;;;0.00;0.00;;;;;;;;;;4925192;29;20024;-60
2022/06/24 11:59:26;;;;;;;0.10;0.10;;;;;;;;;;4925510;29;20160;-59
2022/06/24 12:01:52;;;;;;;0.52;0.52;;;;;;;;;;4926468;29;20144;-59
2022/06/24 12:04:19;;;;;;;0.20;0.20;;;;;;;;;;4926078;29;20051;-59
2022/06/24 12:06:45;;;;;;;0.10;0.10;;;;;;;;;;4923876;29;20058;-60
2022/06/24 12:09:10;;;;;;;0.17;0.17;;;;;;;;;;4926031;29;20422;-60
2022/06/24 12:11:40;;;;;;;0.93;0.93;;;;;;;;;;4926143;29;20111;-60
2022/06/24 12:14:09;;;;;;;0.00;0.00;;;;;;;;;;4927177;29;20078;-59
2022/06/24 12:17:13;;;;;;;8.20;0.63;;;;;;;;;;4925402;29;20074;-60
2022/06/24 12:19:56;;;;;;;0.30;0.30;;;;;;;;;;4882450;29;20072;-60
2022/06/24 12:22:22;;;;;;;0.03;0.03;;;;;;;;;;4886279;29;20036;-60
2022/06/24 12:24:47;;;;;;;0.22;0.22;;;;;;;;;;4889866;29;20047;-60
2022/06/24 12:27:13;;;;;;;0.00;0.00;;;;;;;;;;4889261;29;20068;-59
2022/06/24 12:29:41;;;;;;;0.00;0.00;;;;;;;;;;4888425;29;20028;-59
2022/06/24 12:32:07;;;;;;;0.20;0.03;;;;;;;;;;4890336;29;20048;-59
2022/06/24 12:34:36;;;;;;;5.40;2.03;;;;;;;;;;4889734;29;21717;-59
2022/06/24 12:37:02;;;;;;;1.45;0.25;;;;;;;;;;4888804;29;20039;-60
2022/06/24 12:39:29;;;;;;;8.43;0.63;;;;;;;;;;4888565;29;20040;-60
2022/06/24 12:41:55;;;;;;;0.05;0.03;;;;;;;;;;4889536;29;20028;-60
2022/06/24 12:44:20;;;;;;;0.00;0.00;;;;;;;;;;4890052;29;20653;-60
2022/06/24 12:52:33;;;;;;;0.55;0.55;;;;;;;;;;4898834;29;20656;-60
2022/06/24 12:54:58;;;;;;;0.00;0.00;;;;;;;;;;4929793;29;20144;-60
2022/06/24 12:57:24;;;;;;;0.00;0.00;;;;;;;;;;4927376;29;20118;-59
2022/06/24 12:59:49;;;;;;;0.00;0.00;;;;;;;;;;4929735;29;20028;-60
2022/06/24 13:02:15;;;;;;;0.35;0.35;;;;;;;;;;4930150;29;20389;-61
2022/06/24 13:04:40;;;;;;;0.10;0.10;;;;;;;;;;4929250;29;20028;-60
2022/06/24 13:07:06;;;;;;;0.00;0.00;;;;;;;;;;4930099;29;20036;-59
2022/06/24 13:09:31;;;;;;;0.47;0.47;;;;;;;;;;4929505;29;20023;-59
2022/06/24 13:11:57;;;;;;;0.00;0.00;;;;;;;;;;4929444;29;20568;-60
2022/06/24 13:14:22;;;;;;;0.32;0.32;;;;;;;;;;4927862;29;20020;-60
2022/06/24 13:16:47;;;;;;;0.10;0.10;;;;;;;;;;4929290;29;20039;-59
2022/06/24 13:19:12;;;;;;;1.75;1.75;;;;;;;;;;4913505;29;20549;-60
2022/06/24 13:21:38;;;;;;;0.00;0.00;;;;;;;;;;4909544;29;20036;-60
2022/06/24 13:24:03;;;;;;;0.17;0.17;;;;;;;;;;4908847;29;20558;-60
2022/06/24 13:26:28;;;;;;;0.10;0.10;;;;;;;;;;4908687;29;20028;-60
2022/06/24 13:28:53;;;;;;;0.07;0.07;;;;;;;;;;4910268;29;20027;-59
2022/06/24 13:31:19;;;;;;;0.35;0.28;;;;;;;;;;4910581;29;20279;-58
2022/06/24 13:33:44;;;;;;;0.00;0.00;;;;;;;;;;4908133;29;20115;-59
2022/06/24 13:36:12;;;;;;;0.03;0.03;;;;;;;;;;4909381;29;20272;-59
2022/06/24 13:38:37;;;;;;;0.00;0.00;;;;;;;;;;4908406;29;20419;-59
2022/06/24 13:41:02;;;;;;;0.00;0.00;;;;;;;;;;4910583;29;20137;-59
2022/06/24 13:43:28;;;;;;;0.00;0.00;;;;;;;;;;4910310;29;20260;-60
2022/06/24 13:45:53;;;;;;;0.00;0.00;;;;;;;;;;4907355;29;20032;-59
2022/06/24 13:48:18;;;;;;;0.30;0.30;;;;;;;;;;4892925;29;20091;-59
2022/06/24 13:50:43;;;;;;;0.30;0.30;;;;;;;;;;4909379;29;20127;-60
2022/06/24 13:53:09;;;;;;;0.00;0.00;;;;;;;;;;4908824;29;20501;-60
2022/06/24 13:55:34;;;;;;;0.15;0.15;;;;;;;;;;4908020;29;20039;-60
2022/06/24 13:57:59;;;;;;;4.30;3.30;;;;;;;;;;4908457;29;20032;-62
2022/06/24 14:00:25;;;;;;;0.00;0.00;;;;;;;;;;4909729;29;20051;-58
2022/06/24 14:02:50;;;;;;;0.00;0.00;;;;;;;;;;4908425;29;20036;-57
2022/06/24 14:05:15;;;;;;;0.00;0.00;;;;;;;;;;4908401;29;20036;-60
2022/06/24 14:07:41;;;;;;;0.00;0.00;;;;;;;;;;4909624;29;20026;-59
2022/06/24 14:10:06;;;;;;;0.00;0.00;;;;;;;;;;4904158;29;20024;-61
2022/06/24 14:12:32;;;;;;;0.17;0.17;;;;;;;;;;4902766;29;20347;-62
2022/06/24 14:14:57;;;;;;;0.13;0.13;;;;;;;;;;4907212;29;20477;-60
2022/06/24 14:17:22;;;;;;;0.40;0.40;;;;;;;;;;4905432;29;20386;-59
2022/06/24 14:19:47;;;;;;;0.00;0.00;;;;;;;;;;4899080;29;20390;-58
2022/06/24 14:22:13;;;;;;;0.28;0.17;;;;;;;;;;4923086;29;20396;-59
2022/06/24 14:24:38;;;;;;;0.00;0.00;;;;;;;;;;4924960;29;20028;-58
2022/06/24 14:27:08;;;;;;;0.00;0.00;;;;;;;;;;4921200;29;20272;-57
2022/06/24 14:29:34;;;;;;;0.00;0.00;;;;;;;;;;4922285;29;20103;-59
2022/06/24 14:31:59;;;;;;;0.00;0.00;;;;;;;;;;4924794;29;20020;-59
2022/06/24 14:34:25;;;;;;;0.00;0.00;;;;;;;;;;4906344;29;20051;-59
2022/06/24 14:36:50;;;;;;;0.00;0.00;;;;;;;;;;4921097;29;20253;-58
2022/06/24 14:41:59;;;;;;;0.00;0.00;;;;;;;;;;4924717;29;20067;-59
2022/06/24 14:44:25;;;;;;;0.68;0.68;;;;;;;;;;4921232;29;20111;-58
2022/06/24 14:46:50;;;;;;;0.00;0.00;;;;;;;;;;4921702;29;20944;-58
2022/06/24 14:49:15;;;;;;;0.00;0.00;;;;;;;;;;4924525;29;20062;-57
2022/06/24 14:51:41;;;;;;;0.00;0.00;;;;;;;;;;4921346;29;20031;-58
2022/06/24 14:54:06;;;;;;;0.00;0.00;;;;;;;;;;4920292;29;20031;-59
2022/06/24 14:56:31;;;;;;;0.00;0.00;;;;;;;;;;4925154;29;20365;-59
2022/06/24 14:58:56;;;;;;;0.00;0.00;;;;;;;;;;4922842;29;20082;-59